createdAt,value
2019-04-20T00:01:52.559Z,54.10
2019-04-20T00:04:27.231Z,54.80
2019-04-20T00:06:54.383Z,55.40
2019-04-20T00:09:26.597Z,55.60
2019-04-20T00:12:01.509Z,55.80
2019-04-20T00:14:28.742Z,56.20
2019-04-20T00:16:53.258Z,56.50
2019-04-20T00:19:31.328Z,57.10
2019-04-20T00:22:00.486Z,56.90
2019-04-20T00:24:43.977Z,57.20
2019-04-20T00:27:40.274Z,57.60
2019-04-20T00:29:58.687Z,58.10
2019-04-20T00:32:22.932Z,58.60
2019-04-20T00:34:46.790Z,58.50
2019-04-20T00:37:15.071Z,58.70
2019-04-20T00:39:44.780Z,59.20
2019-04-20T00:42:16.164Z,59.40
2019-04-20T00:44:45.758Z,59.80
2019-04-20T00:47:25.279Z,59.80
2019-04-20T00:50:00.072Z,60.50
2019-04-20T00:52:47.179Z,60.60
2019-04-20T00:54:45.339Z,61.10
2019-04-20T00:57:24.671Z,61.10
2019-04-20T01:00:04.678Z,61.40
2019-04-20T01:02:29.608Z,62.40
2019-04-20T01:05:06.569Z,62.50
2019-04-20T01:07:32.052Z,63.00
2019-04-20T01:10:06.966Z,62.80
2019-04-20T01:12:38.399Z,63.50
2019-04-20T01:15:11.281Z,63.70
2019-04-20T01:17:41.401Z,63.60
2019-04-20T01:20:08.541Z,65.60
2019-04-20T01:22:44.336Z,66.00
2019-04-20T01:25:13.967Z,66.30
2019-04-20T01:27:52.339Z,67.20
2019-04-20T01:30:18.666Z,66.90
2019-04-20T01:32:55.411Z,67.60
2019-04-20T01:35:27.228Z,68.60
2019-04-20T01:38:00.233Z,68.50
2019-04-20T01:40:11.666Z,68.60
2019-04-20T01:42:42.559Z,68.80
2019-04-20T01:45:19.141Z,69.20
2019-04-20T01:47:47.204Z,69.50
2019-04-20T01:50:16.767Z,70.30
2019-04-20T01:52:55.014Z,71.60
2019-04-20T01:55:41.497Z,72.10
2019-04-20T01:58:32.657Z,73.10
2019-04-20T02:00:46.016Z,73.60
2019-04-20T02:03:40.284Z,73.60
2019-04-20T02:06:11.485Z,73.90
2019-04-20T02:08:37.819Z,74.60
2019-04-20T02:11:08.126Z,74.60
2019-04-20T02:13:44.391Z,75.10
2019-04-20T02:16:15.836Z,75.30
2019-04-20T02:18:51.435Z,75.70
2019-04-20T02:21:25.854Z,76.00
2019-04-20T02:23:46.402Z,75.50
2019-04-20T02:26:09.215Z,75.40
2019-04-20T02:29:07.917Z,76.70
2019-04-20T02:32:01.108Z,77.50
2019-04-20T02:34:23.840Z,78.00
2019-04-20T02:36:58.751Z,77.70
2019-04-20T02:39:37.816Z,78.00
2019-04-20T02:46:55.865Z,80.20
2019-04-20T02:49:37.673Z,80.40
2019-04-20T02:54:26.010Z,80.60
2019-04-20T02:57:07.382Z,81.20
2019-04-20T02:59:54.236Z,81.50
2019-04-20T03:02:01.435Z,82.10
2019-04-20T03:04:25.690Z,81.80
2019-04-20T03:07:04.248Z,82.00
2019-04-20T03:09:36.795Z,82.70
2019-04-20T03:12:08.047Z,82.60
2019-04-20T03:14:31.924Z,82.60
2019-04-20T03:17:10.457Z,83.50
2019-04-20T03:19:31.338Z,83.60
2019-04-20T03:22:09.091Z,83.80
2019-04-20T03:24:44.340Z,85.00
2019-04-20T03:27:07.220Z,86.50
2019-04-20T03:29:41.027Z,87.60
2019-04-20T03:32:44.242Z,89.00
2019-04-20T03:37:20.370Z,91.10
2019-04-20T03:39:41.693Z,91.50
2019-04-20T03:41:58.691Z,91.70
2019-04-20T03:44:30.660Z,91.80
2019-04-20T03:47:02.799Z,92.20
2019-04-20T03:49:54.922Z,92.70
2019-04-20T03:52:28.745Z,93.10
2019-04-20T03:54:56.254Z,93.60
2019-04-20T03:57:46.844Z,93.90
2019-04-20T04:00:26.257Z,94.20
2019-04-20T04:03:31.272Z,94.70
2019-04-20T04:05:31.058Z,95.20
2019-04-20T04:07:55.880Z,95.60
2019-04-20T04:10:28.066Z,95.90
2019-04-20T04:13:09.897Z,95.90
2019-04-20T04:15:47.866Z,96.20
2019-04-20T04:18:19.126Z,96.40
2019-04-20T04:20:46.723Z,96.60
2019-04-20T04:23:32.112Z,96.90
2019-04-20T04:26:00.354Z,97.10
2019-04-20T04:28:28.574Z,97.40
2019-04-20T04:31:04.129Z,97.60
2019-04-20T04:33:53.198Z,97.60
2019-04-20T04:35:58.814Z,97.70
2019-04-20T04:38:37.398Z,97.90
2019-04-20T04:43:31.618Z,98.20
2019-04-20T04:45:44.933Z,98.40
2019-04-20T04:48:21.298Z,98.70
2019-04-20T04:50:51.050Z,98.70
2019-04-20T04:53:28.894Z,98.80
2019-04-20T04:55:52.908Z,98.70
2019-04-20T04:58:14.925Z,98.90
2019-04-20T05:00:44.615Z,98.80
2019-04-20T05:03:28.124Z,98.40
2019-04-20T05:06:01.822Z,98.20
2019-04-20T05:08:25.048Z,98.00
2019-04-20T05:10:45.881Z,98.00
2019-04-20T05:13:15.686Z,98.30
2019-04-20T05:15:57.985Z,98.10
2019-04-20T05:18:43.218Z,98.10
2019-04-20T05:21:07.379Z,98.20
2019-04-20T05:23:31.716Z,98.40
2019-04-20T05:26:13.786Z,98.20
2019-04-20T05:28:33.342Z,97.90
2019-04-20T05:30:59.317Z,98.10
2019-04-20T05:33:34.348Z,98.00
2019-04-20T05:36:11.693Z,97.60
2019-04-20T05:38:47.203Z,97.80
2019-04-20T05:41:11.471Z,97.60
2019-04-20T05:43:49.672Z,97.50
2019-04-20T05:46:22.126Z,97.20
2019-04-20T05:48:53.343Z,97.10
2019-04-20T05:51:25.461Z,97.10
2019-04-20T05:53:54.237Z,96.90
2019-04-20T05:56:17.347Z,96.90
2019-04-20T05:58:53.580Z,96.50
2019-04-20T06:01:29.959Z,96.20
2019-04-20T06:03:48.839Z,96.60
2019-04-20T06:06:25.965Z,96.60
2019-04-20T06:08:59.942Z,96.40
2019-04-20T06:11:23.761Z,96.50
2019-04-20T06:13:50.667Z,96.30
2019-04-20T06:16:44.085Z,96.10
2019-04-20T06:19:19.894Z,96.40
2019-04-20T06:21:44.260Z,96.10
2019-04-20T06:24:20.788Z,96.00
2019-04-20T06:26:54.166Z,95.90
2019-04-20T06:29:15.932Z,95.80
2019-04-20T06:31:51.789Z,95.40
2019-04-20T06:34:33.387Z,94.90
2019-04-20T06:36:56.929Z,95.20
2019-04-20T06:42:10.921Z,94.80
2019-04-20T06:52:17.071Z,92.90
2019-04-20T06:54:54.156Z,92.90
2019-04-20T06:57:31.020Z,93.90
2019-04-20T07:00:02.541Z,92.50
2019-04-20T07:02:29.643Z,92.10
2019-04-20T07:04:59.655Z,92.00
2019-04-20T07:07:30.892Z,91.40
2019-04-20T07:10:08.686Z,91.20
2019-04-20T07:12:31.330Z,91.50
2019-04-20T07:14:49.650Z,90.70
2019-04-20T07:17:43.869Z,90.60
2019-04-20T07:20:04.754Z,90.80
2019-04-20T07:22:42.229Z,90.10
2019-04-20T07:25:11.263Z,88.00
2019-04-20T07:27:41.526Z,88.60
2019-04-20T07:30:21.852Z,90.00
2019-04-20T07:32:48.527Z,90.50
2019-04-20T07:35:08.417Z,89.70
2019-04-20T07:38:09.987Z,89.20
2019-04-20T07:40:18.909Z,87.60
2019-04-20T07:42:49.207Z,83.50
2019-04-20T07:45:18.133Z,81.90
2019-04-20T07:47:46.318Z,83.10
2019-04-20T07:50:12.046Z,82.30
2019-04-20T07:52:34.025Z,82.10
2019-04-20T07:57:40.509Z,81.60
2019-04-20T08:00:13.412Z,79.40
2019-04-20T08:03:13.097Z,79.90
2019-04-20T08:05:45.681Z,78.20
2019-04-20T08:08:25.350Z,77.40
2019-04-20T08:10:52.344Z,79.50
2019-04-20T08:13:37.087Z,76.60
2019-04-20T08:15:57.033Z,76.60
2019-04-20T08:18:27.679Z,75.80
2019-04-20T08:20:58.449Z,75.70
2019-04-20T08:23:38.588Z,73.80
2019-04-20T08:25:47.456Z,74.40
2019-04-20T08:28:16.461Z,74.70
2019-04-20T08:31:06.059Z,73.40
2019-04-20T08:33:45.240Z,73.00
2019-04-20T08:36:16.794Z,72.70
2019-04-20T08:39:11.514Z,74.00
2019-04-20T08:41:15.244Z,72.90
2019-04-20T08:46:15.045Z,71.00
2019-04-20T08:48:46.788Z,68.20
2019-04-20T08:51:22.529Z,68.30
2019-04-20T08:53:47.122Z,68.80
2019-04-20T08:56:10.848Z,68.10
2019-04-20T08:58:29.529Z,68.10
2019-04-20T09:01:03.627Z,64.90
2019-04-20T09:03:40.892Z,65.90
2019-04-20T09:06:06.520Z,65.70
2019-04-20T09:08:43.616Z,63.50
2019-04-20T09:11:15.356Z,63.30
2019-04-20T09:13:38.596Z,65.40
2019-04-20T09:16:01.992Z,62.80
2019-04-20T09:18:44.256Z,58.10
2019-04-20T09:21:13.652Z,57.60
2019-04-20T09:23:57.711Z,58.20
2019-04-20T09:26:32.432Z,57.10
2019-04-20T09:28:59.010Z,56.80
2019-04-20T09:31:31.005Z,55.90
2019-04-20T09:34:06.284Z,55.80
2019-04-20T09:36:36.663Z,52.60
2019-04-20T09:39:18.819Z,53.60
2019-04-20T09:44:13.425Z,52.90
2019-04-20T09:46:46.034Z,50.00
2019-04-20T09:49:20.088Z,47.90
2019-04-20T09:51:57.492Z,45.70
2019-04-20T09:54:31.099Z,43.90
2019-04-20T09:57:03.274Z,43.30
2019-04-20T09:59:33.540Z,41.90
2019-04-20T10:01:48.869Z,42.60
2019-04-20T10:04:15.239Z,41.00
2019-04-20T10:06:43.970Z,39.40
2019-04-20T10:09:13.629Z,39.70
2019-04-20T10:11:44.224Z,39.30
2019-04-20T10:14:12.734Z,38.90
2019-04-20T10:16:42.019Z,38.40
2019-04-20T10:19:11.971Z,37.60
2019-04-20T10:21:41.583Z,35.40
2019-04-20T10:24:10.650Z,32.20
2019-04-20T10:26:40.695Z,32.60
2019-04-20T10:29:09.908Z,32.00
2019-04-20T10:31:46.618Z,30.70
2019-04-20T10:34:09.528Z,29.50
2019-04-20T10:36:39.900Z,28.80
2019-04-20T10:39:10.722Z,28.90
2019-04-20T10:41:48.289Z,27.30
2019-04-20T10:44:11.201Z,26.80
2019-04-20T10:46:40.712Z,26.90
2019-04-20T10:49:09.798Z,26.30
2019-04-20T10:51:40.072Z,27.70
2019-04-20T10:54:08.852Z,26.60
2019-04-20T10:56:37.553Z,26.40
2019-04-20T10:59:06.123Z,25.90
2019-04-20T11:01:35.815Z,27.50
2019-04-20T11:04:04.924Z,25.70
2019-04-20T11:06:34.524Z,26.30
2019-04-20T11:09:04.672Z,25.00
2019-04-20T11:11:34.043Z,25.30
2019-04-20T11:14:11.769Z,24.50
2019-04-20T11:16:34.142Z,24.20
2019-04-20T11:19:03.303Z,23.40
2019-04-20T11:21:32.385Z,23.60
2019-04-20T11:24:02.269Z,23.80
2019-04-20T11:26:32.201Z,23.30
2019-04-20T11:29:02.139Z,23.80
2019-04-20T11:31:37.274Z,24.90
2019-04-20T11:34:01.216Z,22.60
2019-04-20T11:36:31.019Z,23.10
2019-04-20T11:39:00.736Z,22.80
2019-04-20T11:41:32.367Z,22.80
2019-04-20T11:43:59.837Z,22.70
2019-04-20T11:46:28.534Z,23.40
2019-04-20T11:48:57.352Z,22.80
2019-04-20T11:51:26.025Z,21.70
2019-04-20T11:53:54.677Z,21.00
2019-04-20T11:56:27.105Z,22.10
2019-04-20T11:58:53.582Z,21.90
2019-04-20T12:01:34.742Z,21.30
2019-04-20T12:04:02.891Z,21.40
2019-04-20T12:06:28.947Z,20.60
2019-04-20T12:08:58.969Z,20.60
2019-04-20T12:11:37.133Z,20.50
2019-04-20T12:13:58.638Z,20.00
2019-04-20T12:16:27.828Z,19.90
2019-04-20T12:18:56.748Z,19.70
2019-04-20T12:21:26.485Z,19.30
2019-04-20T12:23:56.190Z,19.80
2019-04-20T12:26:24.975Z,19.10
2019-04-20T12:28:54.088Z,20.40
2019-04-20T12:31:24.670Z,20.10
2019-04-20T12:33:52.982Z,19.80
2019-04-20T12:36:21.698Z,18.40
2019-04-20T12:38:51.021Z,19.40
2019-04-20T12:41:31.985Z,18.60
2019-04-20T12:43:50.175Z,18.70
2019-04-20T12:46:21.434Z,18.40
2019-04-20T12:48:49.384Z,18.50
2019-04-20T12:51:18.078Z,18.60
2019-04-20T12:53:46.724Z,17.80
2019-04-20T12:56:15.335Z,19.40
2019-04-20T12:58:45.112Z,18.30
2019-04-20T13:01:14.620Z,18.80
2019-04-20T13:03:45.567Z,18.70
2019-04-20T13:06:16.181Z,18.30
2019-04-20T13:08:51.800Z,18.00
2019-04-20T13:11:26.739Z,17.70
2019-04-20T13:14:12.469Z,17.70
2019-04-20T13:16:41.183Z,17.80
2019-04-20T13:19:11.028Z,17.30
2019-04-20T13:21:40.903Z,17.20
2019-04-20T13:24:10.005Z,17.00
2019-04-20T13:26:40.638Z,17.20
2019-04-20T13:29:10.614Z,16.30
2019-04-20T13:31:40.083Z,17.10
2019-04-20T13:34:10.559Z,16.60
2019-04-20T13:36:40.038Z,17.20
2019-04-20T13:39:10.064Z,17.00
2019-04-20T13:41:40.013Z,17.60
2019-04-20T13:44:08.723Z,17.80
2019-04-20T13:46:40.840Z,18.00
2019-04-20T13:49:09.155Z,17.80
2019-04-20T13:51:39.114Z,18.70
2019-04-20T13:54:13.887Z,17.50
2019-04-20T13:56:39.726Z,18.30
2019-04-20T13:59:26.650Z,17.90
2019-04-20T14:02:07.046Z,18.10
2019-04-20T14:04:38.925Z,18.10
2019-04-20T14:07:08.886Z,18.50
2019-04-20T14:09:39.432Z,18.80
2019-04-20T14:12:16.213Z,19.30
2019-04-20T14:14:39.242Z,18.50
2019-04-20T14:17:08.142Z,19.20
2019-04-20T14:19:36.962Z,19.40
2019-04-20T14:22:06.115Z,19.90
2019-04-20T14:24:37.136Z,20.00
2019-04-20T14:27:06.472Z,20.50
2019-04-20T14:29:35.170Z,20.40
2019-04-20T14:32:05.439Z,20.40
2019-04-20T14:34:35.218Z,20.60
2019-04-20T14:37:04.790Z,20.40
2019-04-20T14:39:34.217Z,20.50
2019-04-20T14:42:04.446Z,20.60
2019-04-20T14:44:34.005Z,20.60
2019-04-20T14:47:03.618Z,20.80
2019-04-20T14:49:32.628Z,20.80
2019-04-20T14:52:02.838Z,20.80
2019-04-20T14:54:31.826Z,21.00
2019-04-20T14:57:01.404Z,21.10
2019-04-20T14:59:31.791Z,21.70
2019-04-20T15:02:02.789Z,21.20
2019-04-20T15:04:32.265Z,21.20
2019-04-20T15:07:00.919Z,21.40
2019-04-20T15:09:30.739Z,21.50
2019-04-20T15:12:00.934Z,21.60
2019-04-20T15:14:29.725Z,21.40
2019-04-20T15:17:00.635Z,21.80
2019-04-20T15:19:31.586Z,22.10
2019-04-20T15:22:03.149Z,22.00
2019-04-20T15:24:33.804Z,22.40
2019-04-20T15:27:02.597Z,22.40
2019-04-20T15:29:32.486Z,22.40
2019-04-20T15:32:02.054Z,22.80
2019-04-20T15:34:30.965Z,22.90
2019-04-20T15:37:00.197Z,22.90
2019-04-20T15:39:29.206Z,23.40
2019-04-20T15:41:59.130Z,23.20
2019-04-20T15:44:29.201Z,23.80
2019-04-20T15:46:59.281Z,23.80
2019-04-20T15:49:29.474Z,24.20
2019-04-20T15:51:59.625Z,23.40
2019-04-20T15:54:29.501Z,24.40
2019-04-20T15:57:02.537Z,24.70
2019-04-20T15:59:28.622Z,24.10
2019-04-20T16:02:15.637Z,24.60
2019-04-20T16:04:52.584Z,24.10
2019-04-20T16:07:21.482Z,24.60
2019-04-20T16:09:51.619Z,24.20
2019-04-20T16:12:20.822Z,25.50
2019-04-20T16:14:49.582Z,25.80
2019-04-20T16:17:19.355Z,24.90
2019-04-20T16:19:56.617Z,25.10
2019-04-20T16:22:21.599Z,24.40
2019-04-20T16:25:07.580Z,25.00
2019-04-20T16:27:38.098Z,25.30
2019-04-20T16:30:07.710Z,25.30
2019-04-20T16:32:36.811Z,24.90
2019-04-20T16:35:08.710Z,25.60
2019-04-20T16:37:38.414Z,25.80
2019-04-20T16:40:09.716Z,25.70
2019-04-20T16:42:40.421Z,26.20
2019-04-20T16:45:09.536Z,26.10
2019-04-20T16:47:38.254Z,25.80
2019-04-20T16:50:08.753Z,26.10
2019-04-20T16:52:37.410Z,26.00
2019-04-20T16:55:08.236Z,26.10
2019-04-20T16:57:37.470Z,25.90
2019-04-20T17:00:07.600Z,25.90
2019-04-20T17:02:36.308Z,25.80
2019-04-20T17:05:05.532Z,25.70
2019-04-20T17:07:37.157Z,26.00
2019-04-20T17:10:07.918Z,26.10
2019-04-20T17:12:37.601Z,26.20
2019-04-20T17:15:11.750Z,26.40
2019-04-20T17:17:40.893Z,26.10
2019-04-20T17:20:11.597Z,26.20
2019-04-20T17:22:40.398Z,26.10
2019-04-20T17:25:10.128Z,26.00
2019-04-20T17:27:59.457Z,26.30
2019-04-20T17:30:48.733Z,26.40
2019-04-20T17:33:21.274Z,27.00
2019-04-20T17:35:59.391Z,26.80
2019-04-20T17:38:20.558Z,27.00
2019-04-20T17:41:02.974Z,27.40
2019-04-20T17:43:26.368Z,27.30
2019-04-20T17:45:57.831Z,26.90
2019-04-20T17:48:33.305Z,27.30
2019-04-20T17:51:11.189Z,27.30
2019-04-20T17:53:47.375Z,27.50
2019-04-20T17:56:10.314Z,27.40
2019-04-20T17:58:41.215Z,27.60
2019-04-20T18:01:31.120Z,28.00
2019-04-20T18:04:22.968Z,27.80
2019-04-20T18:06:41.670Z,28.20
2019-04-20T18:09:03.137Z,27.90
2019-04-20T18:11:25.652Z,28.40
2019-04-20T18:14:00.783Z,28.40
2019-04-20T18:16:46.480Z,28.70
2019-04-20T18:19:15.652Z,29.00
2019-04-20T18:21:43.540Z,29.30
2019-04-20T18:24:23.980Z,29.30
2019-04-20T18:26:59.642Z,29.70
2019-04-20T18:29:32.333Z,29.30
2019-04-20T18:31:44.984Z,29.60
2019-04-20T18:34:18.894Z,29.80
2019-04-20T18:36:47.627Z,29.50
2019-04-20T18:39:18.054Z,29.60
2019-04-20T18:41:51.436Z,29.90
2019-04-20T18:44:22.275Z,29.70
2019-04-20T18:47:23.395Z,29.90
2019-04-20T18:49:33.894Z,30.30
2019-04-20T18:51:48.014Z,30.30
2019-04-20T18:54:22.132Z,31.10
2019-04-20T18:56:50.709Z,30.80
2019-04-20T18:59:17.286Z,31.00
2019-04-20T19:01:46.780Z,31.30
2019-04-20T19:04:15.548Z,32.00
2019-04-20T19:06:45.793Z,32.10
2019-04-20T19:09:21.492Z,32.00
2019-04-20T19:11:52.530Z,32.50
2019-04-20T19:14:38.641Z,32.70
2019-04-20T19:17:21.950Z,32.90
2019-04-20T19:19:49.416Z,32.90
2019-04-20T19:22:14.245Z,33.00
2019-04-20T19:24:43.635Z,33.10
2019-04-20T19:27:16.099Z,33.00
2019-04-20T19:29:54.830Z,33.10
2019-04-20T19:32:32.436Z,33.10
2019-04-20T19:34:55.319Z,33.50
2019-04-20T19:37:25.308Z,33.40
2019-04-20T19:40:01.980Z,33.70
2019-04-20T19:42:33.211Z,34.00
2019-04-20T19:45:01.955Z,34.10
2019-04-20T19:47:37.052Z,34.00
2019-04-20T19:50:19.827Z,33.90
2019-04-20T19:52:43.332Z,34.10
2019-04-20T19:55:02.609Z,34.30
2019-04-20T19:57:41.289Z,34.20
2019-04-20T19:59:52.131Z,34.00
2019-04-20T20:02:18.040Z,34.50
2019-04-20T20:04:52.416Z,34.40
2019-04-20T20:07:26.349Z,34.20
2019-04-20T20:09:53.050Z,34.40
2019-04-20T20:12:19.842Z,34.50
2019-04-20T20:14:51.200Z,34.50
2019-04-20T20:17:37.055Z,34.50
2019-04-20T20:20:14.246Z,34.70
2019-04-20T20:22:30.243Z,34.70
2019-04-20T20:24:49.408Z,34.50
2019-04-20T20:27:26.862Z,34.80
2019-04-20T20:29:59.511Z,35.00
2019-04-20T20:32:34.785Z,35.00
2019-04-20T20:34:56.127Z,35.60
2019-04-20T20:37:29.518Z,35.00
2019-04-20T20:39:59.310Z,35.00
2019-04-20T20:42:30.927Z,35.20
2019-04-20T20:44:57.573Z,35.50
2019-04-20T20:47:41.967Z,35.00
2019-04-20T20:50:15.489Z,35.20
2019-04-20T20:52:38.152Z,35.20
2019-04-20T20:55:02.221Z,35.20
2019-04-20T20:57:24.793Z,35.30
2019-04-20T20:59:57.378Z,35.70
2019-04-20T21:02:35.380Z,35.50
2019-04-20T21:04:53.546Z,35.50
2019-04-20T21:07:22.557Z,35.60
2019-04-20T21:09:52.415Z,36.80
2019-04-20T21:12:22.312Z,37.20
2019-04-20T21:14:51.485Z,37.40
2019-04-20T21:17:24.260Z,37.30
2019-04-20T21:20:06.360Z,36.80
2019-04-20T21:22:41.326Z,37.10
2019-04-20T21:24:53.087Z,36.80
2019-04-20T21:27:22.293Z,37.50
2019-04-20T21:29:55.206Z,39.70
2019-04-20T21:32:23.716Z,41.00
2019-04-20T21:35:00.509Z,39.40
2019-04-20T21:37:25.623Z,40.30
2019-04-20T21:39:58.986Z,39.80
2019-04-20T21:42:26.442Z,38.10
2019-04-20T21:45:05.670Z,39.10
2019-04-20T21:47:30.756Z,39.10
2019-04-20T21:50:09.838Z,39.20
2019-04-20T21:52:32.223Z,39.00
2019-04-20T21:54:54.523Z,39.00
2019-04-20T21:57:24.176Z,39.00
2019-04-20T21:59:56.792Z,38.90
2019-04-20T22:02:28.222Z,38.90
2019-04-20T22:04:53.603Z,38.80
2019-04-20T22:07:22.783Z,39.00
2019-04-20T22:09:53.649Z,39.80
2019-04-20T22:12:21.959Z,39.40
2019-04-20T22:14:58.778Z,39.80
2019-04-20T22:17:27.565Z,39.70
2019-04-20T22:20:04.054Z,39.80
2019-04-20T22:22:41.096Z,39.70
2019-04-20T22:25:09.528Z,40.00
2019-04-20T22:27:26.735Z,41.10
2019-04-20T22:29:52.239Z,41.00
2019-04-20T22:32:22.574Z,40.90
2019-04-20T22:34:57.139Z,41.00
2019-04-20T22:37:28.258Z,41.30
2019-04-20T22:39:56.357Z,41.60
2019-04-20T22:42:23.683Z,41.80
2019-04-20T22:44:58.750Z,41.70
2019-04-20T22:47:28.179Z,42.40
2019-04-20T22:50:12.871Z,42.40
2019-04-20T22:52:39.806Z,42.40
2019-04-20T22:55:18.157Z,42.90
2019-04-20T22:57:38.418Z,43.00
2019-04-20T23:00:02.103Z,43.00
2019-04-20T23:02:26.453Z,43.20
2019-04-20T23:04:54.933Z,43.10
2019-04-20T23:07:23.799Z,43.00
2019-04-20T23:09:54.969Z,43.20
2019-04-20T23:12:25.181Z,43.00
2019-04-20T23:14:53.988Z,43.30
2019-04-20T23:17:29.643Z,43.90
2019-04-20T23:19:57.716Z,43.70
2019-04-20T23:22:33.598Z,44.00
2019-04-20T23:24:55.267Z,47.10
2019-04-20T23:27:28.993Z,48.70
2019-04-20T23:29:55.258Z,48.80
2019-04-20T23:32:27.958Z,49.30
2019-04-20T23:35:00.200Z,49.30
2019-04-20T23:37:29.933Z,49.00
2019-04-20T23:39:56.089Z,49.00
2019-04-20T23:42:33.588Z,48.50
2019-04-20T23:45:05.580Z,47.70
2019-04-20T23:47:57.765Z,48.10
2019-04-20T23:50:40.914Z,48.30
2019-04-20T23:53:10.104Z,48.50
2019-04-20T23:55:23.742Z,48.60
2019-04-20T23:57:57.912Z,48.70
